Sebastian Dos Santos

Recruteur - Santos Laguna
6 Août 2028
Dimanche
Processus

Personnalité

Adaptabilité (16) Ambition (16) Controverse (18) Loyauté (10) Pression (1) Professionnalisme (6) Sportivité (20) Tempérament (4)

Profil

Style d'entraînement Démocratique
Diplôme Continental A
Détermination 7
Gestion des joueurs 11
Motivation 12
Discipline 9
Satisfaction professionnelle
100%
Fatigue
0%
Rôle Recruteur
Salaire 65.5K p/s
Contrat 14.03.2030

Performance

Comportement Bon
Efficacité de l'entraînement
36%
Développement des joueurs
45%
Prévention des blessures
30%
Mise en place tactique
35%

Événements récents

A participé à une réunion de recrutement maintenant
A participé à une réunion de recrutement maintenant
A participé à une réunion de recrutement 7j
A participé à une réunion de recrutement 7j
A recommandé une cible de transfert 7j
A participé à une réunion de recrutement 7j
A recommandé une cible de transfert 14j
A participé à une réunion de recrutement 14j

Suivi en cours

96
Joueur Club Statut Capacité Confiance Observé Dernière observation Dernier vote
Tyler Fletcher Rotherham United Actif 105 / 127 40% 4 03.07.2028 -
Makar Vysochenko Spartak Moscow Actif 91 / 103 40% 1 03.07.2028 -
Cheveyo Tsawa Club Brugge Actif 122 / 131 40% 5 27.06.2028 -
Christos Mouzakitis Hull City Actif 140 / 139 40% 2 27.06.2028 -
Trey Nyoni Rotherham United Actif 140 / 148 40% 3 27.06.2028 -
Francisco Herrera Veracruz Rapport prêt 132 / 130 72% 1 26.06.2028 -
Jan Bürger Northampton Town Actif 122 / 128 40% 6 16.06.2028 -
Jorge Salinas Racing Santander Actif 129 / 137 40% 3 16.06.2028 -
Kelian Le Pironnec Mirandés Actif 93 / 106 40% 1 16.06.2028 -
Carlos Gutiérrez Dorados Rapport prêt 120 / 117 72% 1 12.06.2028 -
Luis Reyes Monterrey Rapport prêt 108 / 118 72% 1 01.06.2028 -
Honest Ahanor Atalanta Actif 144 / 135 40% 3 31.05.2028 -
Konta Ismaily Actif 108 / 100 40% 2 31.05.2028 -
Celías Ingenthron Platense Actif 121 / 125 40% 3 30.05.2028 -
Lucas Høgsberg RC Strasbourg Actif 153 / 142 40% 2 28.05.2028 -
Riquelme Thompson-Jones Accrington Stanley Actif 105 / 122 40% 4 28.05.2028 -
Tobías Ramírez River Plate Actif 124 / 130 40% 3 28.05.2028 -
Lamine Bèye Portimonense Actif 110 / 122 40% 3 26.05.2028 -
Josh Nichols Oldham Athletic Actif 123 / 133 40% 3 24.05.2028 -
Adnan Nainggolan KV Oostende Actif 99 / 107 40% 2 23.05.2028 -
Jorthy Mokio ADO Den Haag Actif 140 / 141 40% 3 20.05.2028 -
Bernardo Lima Porto Actif 103 / 114 40% 4 19.05.2028 -
Daniel Banjaqui Benfica Actif 115 / 126 40% 2 17.05.2028 -
Martim Cunha Porto Actif 100 / 119 40% 2 08.05.2028 -
Abubakar Adams Aduana Stars Actif 95 / 85 40% 2 07.05.2028 -
Kiani Inge Groningen Actif 115 / 126 40% 1 06.05.2028 -
Amine Boukamir Charleroi Actif 98 / 102 40% 1 03.05.2028 -
Buba Sangaré Elche Actif 136 / 143 40% 2 02.05.2028 -
Andrija Bulatović Chamois Niortais Actif 128 / 137 40% 1 17.04.2028 -
Giovanni Leoni Lincoln City Actif 131 / 138 40% 1 03.04.2028 -
Matvey Bardachev Zenit Actif 97 / 108 40% 2 25.03.2028 -
Tobiáš Pališčák Zlin Actif 95 / 104 40% 1 23.03.2028 -
Nicolas Sport Recife Actif 100 / 118 40% 1 18.03.2028 -
Marco Farfan Tigres Perdu 118 / 123 69% 1 10.01.2028 -
Nicolás Ibáñez Cruz Azul Actif 142 / 132 69% 1 05.07.2027 Approuver
Henrique Silva Santa Clara Actif 111 / 110 40% 2 24.05.2027 -
Zane Albarus Shrewsbury Town Actif 88 / 98 40% 1 24.05.2027 -
Kazunari Kita Real Sociedad Actif 96 / 111 40% 2 16.05.2027 -
Victor Hernandez Santa Fe Actif 119 / 126 40% 2 16.05.2027 -
Ezra Mayers West Ham United Actif 115 / 120 40% 1 16.05.2027 -
Samuele di Benedetto Twente Actif 108 / 118 40% 2 14.05.2027 -
Gonçalo Oliveira Benfica Actif 121 / 109 40% 3 12.05.2027 -
Chari Giwa US Bougouni Actif 88 / 90 40% 1 12.05.2027 -
Jenson Jones Walsall Actif 82 / 101 40% 2 09.05.2027 -
Caleb Yirenkyi Coventry City Actif 145 / 138 40% 2 06.05.2027 -
Rivaldo Mkhize Black Aces Actif 71 / 97 40% 1 06.05.2027 -
Eliás Montiel Borussia Dortmund Actif 132 / 140 40% 2 05.05.2027 -
Miguel Figueiredo Benfica Actif 102 / 112 40% 1 03.05.2027 -
Afriyie Sulemana WAFA Actif 76 / 91 40% 1 30.04.2027 -
Louis Leroux FC Nantes Actif 125 / 121 40% 1 26.04.2027 -
Alpha Touré FC Metz Actif 126 / 122 40% 2 24.04.2027 -
Juan Pablo De la Reta Rayo Vallecano Actif 101 / 119 40% 1 24.04.2027 -
Yassine Khalifi Charleroi Actif 99 / 119 40% 1 16.04.2027 -
Lucas Agazzi Villarreal Actif 133 / 122 40% 1 12.04.2027 -
James Dornelly Peterborough United Actif 96 / 104 40% 1 07.04.2027 -
Marcelo Allende Mamelodi Sundowns Actif 142 / 134 40% 2 25.01.2027 -
Dara O'Shea Ipswich Town Actif 131 / 136 40% 1 12.01.2027 -
Maicon Levski Actif 124 / 127 40% 1 12.01.2027 -
Jackson Porozo Tijuana Actif 121 / 121 40% 1 12.01.2027 -
Justo Giani Umraniyespor Actif 131 / 127 40% 2 03.01.2027 -
Luis Caicedo Spartak 1918 Actif 101 / 86 40% 1 31.12.2026 -
Joe Gelhardt Hull City Actif 134 / 131 40% 1 31.12.2026 -
Manu Morlanes Mallorca Actif 145 / 142 40% 6 29.12.2026 -
Paulo Victor Queretaro Actif 111 / 119 40% 1 29.12.2026 -
Ilyas Ansah Hull City Actif 128 / 143 40% 1 29.12.2026 -
Scott Twine Bristol City Actif 126 / 128 40% 2 23.12.2026 -
Alexander Díaz Deportivo Riestra Actif 111 / 123 40% 1 22.12.2026 -
Brian Gutiérrez Guadalajara Actif 131 / 129 40% 1 19.12.2026 -
Tyrhys Dolan Espanyol Actif 142 / 143 40% 1 19.12.2026 -
Omar Campos Cruz Azul Actif 128 / 127 40% 1 18.12.2026 -
Juan Bisanz Huracán Actif 129 / 124 40% 3 15.12.2026 -
Jaminton Campaz Rosario Central Actif 118 / 125 40% 1 15.12.2026 -
Alan Lescano Argentinos Juniors Actif 125 / 131 40% 1 12.12.2026 -
Franco Watson Lanús Actif 117 / 126 40% 1 12.12.2026 -
Finn Azaz Southampton Actif 143 / 123 40% 3 10.12.2026 -
Bradley Zwane SuperSport United Actif 123 / 117 40% 2 10.12.2026 -
Armstrong Oko-Flex Levski Actif 116 / 115 40% 1 10.12.2026 -
Oswin Appollis Orlando Pirates Actif 121 / 113 40% 2 07.12.2026 -
Jack McGlynn Stoke City Actif 123 / 133 40% 1 02.12.2026 -
Brian Rodríguez Club America Actif 123 / 124 40% 1 02.12.2026 -
Daniel Kyerewaa Reading Actif 120 / 117 40% 1 29.11.2026 -
Carlos Álvarez Club America Actif 147 / 141 40% 4 21.11.2026 -
Alejandro Pozo Standard Liege Actif 135 / 117 40% 2 20.11.2026 -
Franco Zapiola Platense Actif 129 / 125 40% 2 20.11.2026 -
Nicolás Retamar Ferro Carril Oeste Actif 110 / 109 40% 1 16.11.2026 -
Ramiro Ruiz Rodríguez Atlético Tucumán Actif 123 / 123 40% 1 16.11.2026 -
Thomas Carrique Andorra Actif 104 / 124 40% 1 14.11.2026 -
Alejo Cruz Juventud Actif 124 / 114 40% 1 14.11.2026 -
Elías López Aldosivi Actif 117 / 118 40% 1 12.11.2026 -
Alexis Cuello San Lorenzo Actif 128 / 128 40% 2 11.11.2026 -
Reda Khadra Qarabag Actif 137 / 121 40% 1 11.11.2026 -
Franco Ibarra Rosario Central Actif 120 / 128 40% 1 09.11.2026 -
Gastón Benedetti Estudiantes Actif 117 / 128 40% 1 09.11.2026 -
Rick Talleres Actif 123 / 118 40% 1 07.11.2026 -
Alex Luna Instituto Actif 136 / 136 40% 1 03.11.2026 -
Carlos Forbs Club Brugge Actif 122 / 126 40% 1 03.11.2026 Plus d'infos